sensor_id;sensor_type;location;lat;lon;timestamp;temperature;humidity
60846;DHT22;47984;51.250;6.712;2022-07-06T00:01:22;14.80;45.30
60846;DHT22;47984;51.250;6.712;2022-07-06T00:03:49;14.70;45.10
60846;DHT22;47984;51.250;6.712;2022-07-06T00:06:22;14.70;45.10
60846;DHT22;47984;51.250;6.712;2022-07-06T00:08:50;14.70;45.10
60846;DHT22;47984;51.250;6.712;2022-07-06T00:11:17;14.70;45.30
60846;DHT22;47984;51.250;6.712;2022-07-06T00:13:44;14.60;45.30
60846;DHT22;47984;51.250;6.712;2022-07-06T00:16:12;14.50;45.30
60846;DHT22;47984;51.250;6.712;2022-07-06T00:18:39;14.50;45.40
60846;DHT22;47984;51.250;6.712;2022-07-06T00:21:06;14.40;45.40
60846;DHT22;47984;51.250;6.712;2022-07-06T00:23:34;14.40;45.50
60846;DHT22;47984;51.250;6.712;2022-07-06T00:26:01;14.30;45.50
60846;DHT22;47984;51.250;6.712;2022-07-06T00:28:29;14.30;45.60
60846;DHT22;47984;51.250;6.712;2022-07-06T00:30:57;14.20;45.70
60846;DHT22;47984;51.250;6.712;2022-07-06T00:33:24;14.20;45.80
60846;DHT22;47984;51.250;6.712;2022-07-06T00:35:51;14.10;45.80
60846;DHT22;47984;51.250;6.712;2022-07-06T00:38:18;14.10;45.80
60846;DHT22;47984;51.250;6.712;2022-07-06T00:40:46;14.00;45.90
60846;DHT22;47984;51.250;6.712;2022-07-06T00:43:13;14.00;46.00
60846;DHT22;47984;51.250;6.712;2022-07-06T00:45:40;13.90;46.00
60846;DHT22;47984;51.250;6.712;2022-07-06T00:48:07;13.90;46.00
60846;DHT22;47984;51.250;6.712;2022-07-06T00:50:35;13.80;46.00
60846;DHT22;47984;51.250;6.712;2022-07-06T00:53:04;13.80;46.20
60846;DHT22;47984;51.250;6.712;2022-07-06T00:55:35;13.70;46.20
60846;DHT22;47984;51.250;6.712;2022-07-06T00:58:07;13.70;46.40
60846;DHT22;47984;51.250;6.712;2022-07-06T01:00:36;13.60;46.40
60846;DHT22;47984;51.250;6.712;2022-07-06T01:03:04;13.60;46.40
60846;DHT22;47984;51.250;6.712;2022-07-06T01:05:31;13.50;47.10
60846;DHT22;47984;51.250;6.712;2022-07-06T01:07:58;13.50;46.50
60846;DHT22;47984;51.250;6.712;2022-07-06T01:10:27;13.50;46.60
60846;DHT22;47984;51.250;6.712;2022-07-06T01:12:55;13.40;46.70
60846;DHT22;47984;51.250;6.712;2022-07-06T01:15:25;13.40;46.70
60846;DHT22;47984;51.250;6.712;2022-07-06T01:17:53;13.30;46.90
60846;DHT22;47984;51.250;6.712;2022-07-06T01:20:22;13.30;46.80
60846;DHT22;47984;51.250;6.712;2022-07-06T01:22:53;13.20;47.00
60846;DHT22;47984;51.250;6.712;2022-07-06T01:25:21;13.20;47.00
60846;DHT22;47984;51.250;6.712;2022-07-06T01:27:49;13.10;47.00
60846;DHT22;47984;51.250;6.712;2022-07-06T01:30:19;13.10;47.10
60846;DHT22;47984;51.250;6.712;2022-07-06T01:32:47;13.10;47.40
60846;DHT22;47984;51.250;6.712;2022-07-06T01:35:15;13.00;47.30
60846;DHT22;47984;51.250;6.712;2022-07-06T01:37:43;13.00;47.30
60846;DHT22;47984;51.250;6.712;2022-07-06T01:40:11;12.90;47.40
60846;DHT22;47984;51.250;6.712;2022-07-06T01:42:39;12.90;47.50
60846;DHT22;47984;51.250;6.712;2022-07-06T01:45:07;12.90;47.50
60846;DHT22;47984;51.250;6.712;2022-07-06T01:47:35;12.80;47.60
60846;DHT22;47984;51.250;6.712;2022-07-06T01:50:08;12.80;47.70
60846;DHT22;47984;51.250;6.712;2022-07-06T01:52:35;12.70;48.00
60846;DHT22;47984;51.250;6.712;2022-07-06T01:55:03;12.70;48.30
60846;DHT22;47984;51.250;6.712;2022-07-06T01:57:31;12.70;47.90
60846;DHT22;47984;51.250;6.712;2022-07-06T01:59:58;12.60;47.90
60846;DHT22;47984;51.250;6.712;2022-07-06T02:02:25;12.60;48.00
60846;DHT22;47984;51.250;6.712;2022-07-06T02:04:52;12.60;48.00
60846;DHT22;47984;51.250;6.712;2022-07-06T02:07:19;12.50;48.00
60846;DHT22;47984;51.250;6.712;2022-07-06T02:09:46;12.50;48.10
60846;DHT22;47984;51.250;6.712;2022-07-06T02:12:13;12.50;48.10
60846;DHT22;47984;51.250;6.712;2022-07-06T02:14:40;12.40;48.10
60846;DHT22;47984;51.250;6.712;2022-07-06T02:17:08;12.40;48.30
60846;DHT22;47984;51.250;6.712;2022-07-06T02:19:35;12.40;48.30
60846;DHT22;47984;51.250;6.712;2022-07-06T02:22:02;12.30;48.30
60846;DHT22;47984;51.250;6.712;2022-07-06T02:24:31;12.30;48.30
60846;DHT22;47984;51.250;6.712;2022-07-06T02:26:58;12.30;48.50
60846;DHT22;47984;51.250;6.712;2022-07-06T02:29:25;12.30;48.60
60846;DHT22;47984;51.250;6.712;2022-07-06T02:31:52;12.20;48.70
60846;DHT22;47984;51.250;6.712;2022-07-06T02:34:20;12.20;48.80
60846;DHT22;47984;51.250;6.712;2022-07-06T02:36:47;12.20;48.90
60846;DHT22;47984;51.250;6.712;2022-07-06T02:39:14;12.20;49.00
60846;DHT22;47984;51.250;6.712;2022-07-06T02:41:41;12.20;49.00
60846;DHT22;47984;51.250;6.712;2022-07-06T02:44:08;12.10;49.00
60846;DHT22;47984;51.250;6.712;2022-07-06T02:46:35;12.10;49.10
60846;DHT22;47984;51.250;6.712;2022-07-06T02:49:02;12.10;49.20
60846;DHT22;47984;51.250;6.712;2022-07-06T02:51:29;12.10;49.20
60846;DHT22;47984;51.250;6.712;2022-07-06T02:53:56;12.00;49.20
60846;DHT22;47984;51.250;6.712;2022-07-06T02:56:24;12.00;49.30
60846;DHT22;47984;51.250;6.712;2022-07-06T02:58:51;12.00;49.40
60846;DHT22;47984;51.250;6.712;2022-07-06T03:01:18;12.00;49.40
60846;DHT22;47984;51.250;6.712;2022-07-06T03:03:47;12.00;49.40
60846;DHT22;47984;51.250;6.712;2022-07-06T03:06:14;11.90;49.40
60846;DHT22;47984;51.250;6.712;2022-07-06T03:08:41;11.90;49.60
60846;DHT22;47984;51.250;6.712;2022-07-06T03:11:09;11.90;49.50
60846;DHT22;47984;51.250;6.712;2022-07-06T03:13:36;11.90;49.60
60846;DHT22;47984;51.250;6.712;2022-07-06T03:16:03;11.90;49.70
60846;DHT22;47984;51.250;6.712;2022-07-06T03:18:31;11.90;49.80
60846;DHT22;47984;51.250;6.712;2022-07-06T03:20:58;11.90;49.70
60846;DHT22;47984;51.250;6.712;2022-07-06T03:23:25;11.80;49.80
60846;DHT22;47984;51.250;6.712;2022-07-06T03:25:52;11.80;49.80
60846;DHT22;47984;51.250;6.712;2022-07-06T03:28:19;11.80;49.80
60846;DHT22;47984;51.250;6.712;2022-07-06T03:30:47;11.80;49.90
60846;DHT22;47984;51.250;6.712;2022-07-06T03:33:14;11.80;50.00
60846;DHT22;47984;51.250;6.712;2022-07-06T03:35:41;11.80;50.00
60846;DHT22;47984;51.250;6.712;2022-07-06T03:38:08;11.70;50.00
60846;DHT22;47984;51.250;6.712;2022-07-06T03:40:35;11.70;50.00
60846;DHT22;47984;51.250;6.712;2022-07-06T03:43:03;11.70;50.00
60846;DHT22;47984;51.250;6.712;2022-07-06T03:45:30;11.70;50.10
60846;DHT22;47984;51.250;6.712;2022-07-06T03:47:57;11.70;50.10
60846;DHT22;47984;51.250;6.712;2022-07-06T03:50:24;11.60;50.20
60846;DHT22;47984;51.250;6.712;2022-07-06T03:52:51;11.60;50.20
60846;DHT22;47984;51.250;6.712;2022-07-06T03:55:19;11.60;50.30
60846;DHT22;47984;51.250;6.712;2022-07-06T03:57:46;11.60;51.10
60846;DHT22;47984;51.250;6.712;2022-07-06T04:00:13;11.50;50.50
60846;DHT22;47984;51.250;6.712;2022-07-06T04:02:41;11.50;50.60
60846;DHT22;47984;51.250;6.712;2022-07-06T04:05:08;11.50;50.60
60846;DHT22;47984;51.250;6.712;2022-07-06T04:07:35;11.50;50.70
60846;DHT22;47984;51.250;6.712;2022-07-06T04:10:03;11.50;50.80
60846;DHT22;47984;51.250;6.712;2022-07-06T04:12:30;11.50;51.60
60846;DHT22;47984;51.250;6.712;2022-07-06T04:14:57;11.50;50.80
60846;DHT22;47984;51.250;6.712;2022-07-06T04:17:25;11.50;51.10
60846;DHT22;47984;51.250;6.712;2022-07-06T04:20:11;11.50;51.10
60846;DHT22;47984;51.250;6.712;2022-07-06T04:22:38;11.40;51.20
60846;DHT22;47984;51.250;6.712;2022-07-06T04:25:06;11.50;51.40
60846;DHT22;47984;51.250;6.712;2022-07-06T04:27:33;11.40;51.40
60846;DHT22;47984;51.250;6.712;2022-07-06T04:30:02;11.40;51.50
60846;DHT22;47984;51.250;6.712;2022-07-06T04:32:30;11.40;51.60
60846;DHT22;47984;51.250;6.712;2022-07-06T04:34:58;11.50;51.70
60846;DHT22;47984;51.250;6.712;2022-07-06T04:37:25;11.50;51.80
60846;DHT22;47984;51.250;6.712;2022-07-06T04:39:52;11.50;51.90
60846;DHT22;47984;51.250;6.712;2022-07-06T04:42:20;11.50;51.90
60846;DHT22;47984;51.250;6.712;2022-07-06T04:44:47;11.50;51.90
60846;DHT22;47984;51.250;6.712;2022-07-06T04:47:14;11.50;51.90
60846;DHT22;47984;51.250;6.712;2022-07-06T04:49:41;11.50;52.00
60846;DHT22;47984;51.250;6.712;2022-07-06T04:52:09;11.60;52.00
60846;DHT22;47984;51.250;6.712;2022-07-06T04:54:36;11.60;52.00
60846;DHT22;47984;51.250;6.712;2022-07-06T04:57:04;11.60;52.10
60846;DHT22;47984;51.250;6.712;2022-07-06T04:59:38;11.60;52.10
60846;DHT22;47984;51.250;6.712;2022-07-06T05:02:06;11.70;52.20
60846;DHT22;47984;51.250;6.712;2022-07-06T05:04:33;11.70;52.30
60846;DHT22;47984;51.250;6.712;2022-07-06T05:07:00;11.80;52.40
60846;DHT22;47984;51.250;6.712;2022-07-06T05:09:27;11.80;52.30
60846;DHT22;47984;51.250;6.712;2022-07-06T05:11:55;11.80;52.30
60846;DHT22;47984;51.250;6.712;2022-07-06T05:14:22;11.90;52.40
60846;DHT22;47984;51.250;6.712;2022-07-06T05:16:49;11.90;52.40
60846;DHT22;47984;51.250;6.712;2022-07-06T05:19:16;11.90;52.40
60846;DHT22;47984;51.250;6.712;2022-07-06T05:21:44;12.00;52.40
60846;DHT22;47984;51.250;6.712;2022-07-06T05:24:11;12.00;52.40
60846;DHT22;47984;51.250;6.712;2022-07-06T05:26:38;12.10;52.50
60846;DHT22;47984;51.250;6.712;2022-07-06T05:29:05;12.10;52.50
60846;DHT22;47984;51.250;6.712;2022-07-06T05:31:32;12.20;52.50
60846;DHT22;47984;51.250;6.712;2022-07-06T05:33:59;12.20;52.50
60846;DHT22;47984;51.250;6.712;2022-07-06T05:36:27;12.30;52.60
60846;DHT22;47984;51.250;6.712;2022-07-06T05:38:54;12.30;52.60
60846;DHT22;47984;51.250;6.712;2022-07-06T05:41:21;12.40;52.70
60846;DHT22;47984;51.250;6.712;2022-07-06T05:43:55;12.40;52.60
60846;DHT22;47984;51.250;6.712;2022-07-06T05:46:22;12.50;52.60
60846;DHT22;47984;51.250;6.712;2022-07-06T05:48:49;12.60;52.60
60846;DHT22;47984;51.250;6.712;2022-07-06T05:51:35;12.70;52.60
60846;DHT22;47984;51.250;6.712;2022-07-06T05:54:02;12.70;52.50
60846;DHT22;47984;51.250;6.712;2022-07-06T05:56:29;12.80;52.60
60846;DHT22;47984;51.250;6.712;2022-07-06T05:58:57;12.90;52.70
60846;DHT22;47984;51.250;6.712;2022-07-06T06:01:24;12.90;52.60
60846;DHT22;47984;51.250;6.712;2022-07-06T06:03:51;13.00;52.60
60846;DHT22;47984;51.250;6.712;2022-07-06T06:06:19;13.10;52.60
60846;DHT22;47984;51.250;6.712;2022-07-06T06:08:46;13.10;52.50
60846;DHT22;47984;51.250;6.712;2022-07-06T06:11:13;13.20;52.60
60846;DHT22;47984;51.250;6.712;2022-07-06T06:13:40;13.30;52.70
60846;DHT22;47984;51.250;6.712;2022-07-06T06:16:08;13.40;52.70
60846;DHT22;47984;51.250;6.712;2022-07-06T06:18:35;13.40;52.60
60846;DHT22;47984;51.250;6.712;2022-07-06T06:21:08;13.50;52.40
60846;DHT22;47984;51.250;6.712;2022-07-06T06:23:36;13.60;52.40
60846;DHT22;47984;51.250;6.712;2022-07-06T06:26:03;13.70;52.40
60846;DHT22;47984;51.250;6.712;2022-07-06T06:28:31;13.80;52.40
60846;DHT22;47984;51.250;6.712;2022-07-06T06:30:58;13.90;52.20
60846;DHT22;47984;51.250;6.712;2022-07-06T06:33:25;13.90;52.10
60846;DHT22;47984;51.250;6.712;2022-07-06T06:35:53;14.00;52.00
60846;DHT22;47984;51.250;6.712;2022-07-06T06:38:22;14.10;52.10
60846;DHT22;47984;51.250;6.712;2022-07-06T06:40:54;14.10;52.10
60846;DHT22;47984;51.250;6.712;2022-07-06T06:43:22;14.20;51.80
60846;DHT22;47984;51.250;6.712;2022-07-06T06:45:49;14.30;51.80
60846;DHT22;47984;51.250;6.712;2022-07-06T06:48:16;14.30;51.70
60846;DHT22;47984;51.250;6.712;2022-07-06T06:50:45;14.40;51.70
60846;DHT22;47984;51.250;6.712;2022-07-06T06:53:12;14.40;51.70
60846;DHT22;47984;51.250;6.712;2022-07-06T06:55:40;14.50;51.60
60846;DHT22;47984;51.250;6.712;2022-07-06T06:58:07;14.60;51.60
60846;DHT22;47984;51.250;6.712;2022-07-06T07:00:34;14.60;51.40
60846;DHT22;47984;51.250;6.712;2022-07-06T07:03:02;14.60;51.40
60846;DHT22;47984;51.250;6.712;2022-07-06T07:05:29;14.70;51.40
60846;DHT22;47984;51.250;6.712;2022-07-06T07:07:56;14.80;51.40
60846;DHT22;47984;51.250;6.712;2022-07-06T07:10:31;14.80;51.30
60846;DHT22;47984;51.250;6.712;2022-07-06T07:12:58;14.90;51.20
60846;DHT22;47984;51.250;6.712;2022-07-06T07:15:26;14.90;51.20
60846;DHT22;47984;51.250;6.712;2022-07-06T07:17:53;14.90;51.20
60846;DHT22;47984;51.250;6.712;2022-07-06T07:20:20;15.00;51.10
60846;DHT22;47984;51.250;6.712;2022-07-06T07:22:47;15.00;51.00
60846;DHT22;47984;51.250;6.712;2022-07-06T07:25:14;15.10;51.00
60846;DHT22;47984;51.250;6.712;2022-07-06T07:27:42;15.10;51.00
60846;DHT22;47984;51.250;6.712;2022-07-06T07:30:10;15.20;51.00
60846;DHT22;47984;51.250;6.712;2022-07-06T07:32:37;15.20;51.00
60846;DHT22;47984;51.250;6.712;2022-07-06T07:35:07;15.30;50.90
60846;DHT22;47984;51.250;6.712;2022-07-06T07:37:35;15.30;50.80
60846;DHT22;47984;51.250;6.712;2022-07-06T07:40:03;15.30;50.80
60846;DHT22;47984;51.250;6.712;2022-07-06T07:42:31;15.40;50.80
60846;DHT22;47984;51.250;6.712;2022-07-06T07:44:59;15.40;50.80
60846;DHT22;47984;51.250;6.712;2022-07-06T07:47:26;15.50;50.80
60846;DHT22;47984;51.250;6.712;2022-07-06T07:49:53;15.50;50.60
60846;DHT22;47984;51.250;6.712;2022-07-06T07:52:21;15.60;50.60
60846;DHT22;47984;51.250;6.712;2022-07-06T07:54:48;15.60;50.30
60846;DHT22;47984;51.250;6.712;2022-07-06T07:57:35;15.70;50.30
60846;DHT22;47984;51.250;6.712;2022-07-06T08:00:04;15.70;50.50
60846;DHT22;47984;51.250;6.712;2022-07-06T08:02:32;15.70;50.10
60846;DHT22;47984;51.250;6.712;2022-07-06T08:04:59;15.80;50.10
60846;DHT22;47984;51.250;6.712;2022-07-06T08:07:27;15.80;50.00
60846;DHT22;47984;51.250;6.712;2022-07-06T08:09:54;15.90;49.90
60846;DHT22;47984;51.250;6.712;2022-07-06T08:12:21;15.90;49.90
60846;DHT22;47984;51.250;6.712;2022-07-06T08:14:48;16.00;49.80
60846;DHT22;47984;51.250;6.712;2022-07-06T08:17:16;16.00;50.00
60846;DHT22;47984;51.250;6.712;2022-07-06T08:19:43;16.00;49.50
60846;DHT22;47984;51.250;6.712;2022-07-06T08:22:10;16.10;49.50
60846;DHT22;47984;51.250;6.712;2022-07-06T08:24:37;16.10;49.40
60846;DHT22;47984;51.250;6.712;2022-07-06T08:27:04;16.10;49.40
60846;DHT22;47984;51.250;6.712;2022-07-06T08:29:31;16.20;49.40
60846;DHT22;47984;51.250;6.712;2022-07-06T08:31:59;16.20;49.10
60846;DHT22;47984;51.250;6.712;2022-07-06T08:34:40;16.20;49.10
60846;DHT22;47984;51.250;6.712;2022-07-06T08:37:07;16.20;49.30
60846;DHT22;47984;51.250;6.712;2022-07-06T08:39:34;16.30;49.20
60846;DHT22;47984;51.250;6.712;2022-07-06T08:42:02;16.30;49.10
60846;DHT22;47984;51.250;6.712;2022-07-06T08:44:29;16.30;49.10
60846;DHT22;47984;51.250;6.712;2022-07-06T08:46:58;16.30;49.00
60846;DHT22;47984;51.250;6.712;2022-07-06T08:49:32;16.30;48.90
60846;DHT22;47984;51.250;6.712;2022-07-06T08:52:02;16.40;49.00
60846;DHT22;47984;51.250;6.712;2022-07-06T08:54:31;16.40;48.70
60846;DHT22;47984;51.250;6.712;2022-07-06T08:56:58;16.40;48.80
60846;DHT22;47984;51.250;6.712;2022-07-06T08:59:26;16.50;48.40
60846;DHT22;47984;51.250;6.712;2022-07-06T09:01:55;16.50;48.60
60846;DHT22;47984;51.250;6.712;2022-07-06T09:04:23;16.50;48.50
60846;DHT22;47984;51.250;6.712;2022-07-06T09:06:52;16.60;48.60
60846;DHT22;47984;51.250;6.712;2022-07-06T09:09:23;16.60;48.20
60846;DHT22;47984;51.250;6.712;2022-07-06T09:11:53;16.60;48.00
60846;DHT22;47984;51.250;6.712;2022-07-06T09:14:21;16.70;48.40
60846;DHT22;47984;51.250;6.712;2022-07-06T09:16:52;16.70;48.00
60846;DHT22;47984;51.250;6.712;2022-07-06T09:19:34;16.70;47.30
60846;DHT22;47984;51.250;6.712;2022-07-06T09:22:03;16.80;47.70
60846;DHT22;47984;51.250;6.712;2022-07-06T09:24:31;16.80;47.90
60846;DHT22;47984;51.250;6.712;2022-07-06T09:26:59;16.80;47.50
60846;DHT22;47984;51.250;6.712;2022-07-06T09:29:31;16.90;47.20
60846;DHT22;47984;51.250;6.712;2022-07-06T09:32:00;16.90;46.70
60846;DHT22;47984;51.250;6.712;2022-07-06T09:34:43;16.90;46.80
60846;DHT22;47984;51.250;6.712;2022-07-06T09:37:12;17.00;46.30
60846;DHT22;47984;51.250;6.712;2022-07-06T09:39:40;17.10;46.60
60846;DHT22;47984;51.250;6.712;2022-07-06T09:42:10;17.10;46.70
60846;DHT22;47984;51.250;6.712;2022-07-06T09:44:39;17.10;46.60
60846;DHT22;47984;51.250;6.712;2022-07-06T09:47:09;17.20;46.70
60846;DHT22;47984;51.250;6.712;2022-07-06T09:49:39;17.20;46.60
60846;DHT22;47984;51.250;6.712;2022-07-06T09:52:10;17.20;46.60
60846;DHT22;47984;51.250;6.712;2022-07-06T09:54:38;17.20;46.10
60846;DHT22;47984;51.250;6.712;2022-07-06T09:57:06;17.20;46.20
60846;DHT22;47984;51.250;6.712;2022-07-06T09:59:36;17.30;46.50
60846;DHT22;47984;51.250;6.712;2022-07-06T10:02:06;17.30;46.20
60846;DHT22;47984;51.250;6.712;2022-07-06T10:04:35;17.30;46.30
60846;DHT22;47984;51.250;6.712;2022-07-06T10:07:04;17.30;46.40
60846;DHT22;47984;51.250;6.712;2022-07-06T10:09:33;17.40;46.40
60846;DHT22;47984;51.250;6.712;2022-07-06T10:12:02;17.40;46.40
60846;DHT22;47984;51.250;6.712;2022-07-06T10:14:32;17.50;46.40
60846;DHT22;47984;51.250;6.712;2022-07-06T10:17:02;17.50;46.40
60846;DHT22;47984;51.250;6.712;2022-07-06T10:19:33;17.60;46.20
60846;DHT22;47984;51.250;6.712;2022-07-06T10:22:02;17.60;46.00
60846;DHT22;47984;51.250;6.712;2022-07-06T10:24:30;17.60;46.00
60846;DHT22;47984;51.250;6.712;2022-07-06T10:27:02;17.60;46.00
60846;DHT22;47984;51.250;6.712;2022-07-06T10:29:30;17.70;46.10
60846;DHT22;47984;51.250;6.712;2022-07-06T10:32:00;17.80;45.90
60846;DHT22;47984;51.250;6.712;2022-07-06T10:34:28;17.80;45.90
60846;DHT22;47984;51.250;6.712;2022-07-06T10:36:56;17.80;46.40
60846;DHT22;47984;51.250;6.712;2022-07-06T10:39:36;17.90;45.90
60846;DHT22;47984;51.250;6.712;2022-07-06T10:53:25;18.10;45.00
60846;DHT22;47984;51.250;6.712;2022-07-06T10:55:55;18.20;44.90
60846;DHT22;47984;51.250;6.712;2022-07-06T10:58:48;18.20;45.10
60846;DHT22;47984;51.250;6.712;2022-07-06T11:01:21;18.30;44.70
60846;DHT22;47984;51.250;6.712;2022-07-06T11:06:24;18.40;44.80
60846;DHT22;47984;51.250;6.712;2022-07-06T11:11:40;18.50;44.60
60846;DHT22;47984;51.250;6.712;2022-07-06T11:19:17;18.70;44.20
60846;DHT22;47984;51.250;6.712;2022-07-06T11:21:54;18.70;44.00
60846;DHT22;47984;51.250;6.712;2022-07-06T11:24:27;18.80;43.90
60846;DHT22;47984;51.250;6.712;2022-07-06T11:26:57;18.80;43.90
60846;DHT22;47984;51.250;6.712;2022-07-06T11:29:27;18.80;43.90
60846;DHT22;47984;51.250;6.712;2022-07-06T11:31:57;18.90;44.00
60846;DHT22;47984;51.250;6.712;2022-07-06T11:34:30;18.90;44.00
60846;DHT22;47984;51.250;6.712;2022-07-06T11:37:07;18.90;43.90
60846;DHT22;47984;51.250;6.712;2022-07-06T11:39:40;19.00;43.80
60846;DHT22;47984;51.250;6.712;2022-07-06T11:42:11;19.00;43.90
60846;DHT22;47984;51.250;6.712;2022-07-06T11:44:40;19.00;43.60
60846;DHT22;47984;51.250;6.712;2022-07-06T11:47:09;19.00;43.60
60846;DHT22;47984;51.250;6.712;2022-07-06T11:49:39;19.00;43.70
60846;DHT22;47984;51.250;6.712;2022-07-06T11:52:09;19.10;43.80
60846;DHT22;47984;51.250;6.712;2022-07-06T11:54:40;19.10;43.50
60846;DHT22;47984;51.250;6.712;2022-07-06T11:57:09;19.20;43.40
60846;DHT22;47984;51.250;6.712;2022-07-06T11:59:39;19.20;43.30
60846;DHT22;47984;51.250;6.712;2022-07-06T12:02:12;19.30;44.10
60846;DHT22;47984;51.250;6.712;2022-07-06T12:04:44;19.40;43.00
60846;DHT22;47984;51.250;6.712;2022-07-06T12:07:15;19.40;43.00
60846;DHT22;47984;51.250;6.712;2022-07-06T12:09:45;19.40;43.00
60846;DHT22;47984;51.250;6.712;2022-07-06T12:12:14;19.50;42.90
60846;DHT22;47984;51.250;6.712;2022-07-06T12:14:43;19.50;42.90
60846;DHT22;47984;51.250;6.712;2022-07-06T12:17:13;19.50;42.80
60846;DHT22;47984;51.250;6.712;2022-07-06T12:19:43;19.50;42.70
60846;DHT22;47984;51.250;6.712;2022-07-06T12:22:10;19.50;42.50
60846;DHT22;47984;51.250;6.712;2022-07-06T12:24:42;19.50;42.60
60846;DHT22;47984;51.250;6.712;2022-07-06T12:27:17;19.60;42.40
60846;DHT22;47984;51.250;6.712;2022-07-06T12:29:47;19.60;42.40
60846;DHT22;47984;51.250;6.712;2022-07-06T12:32:17;19.60;42.70
60846;DHT22;47984;51.250;6.712;2022-07-06T12:34:46;19.60;42.90
60846;DHT22;47984;51.250;6.712;2022-07-06T12:37:14;19.70;42.70
60846;DHT22;47984;51.250;6.712;2022-07-06T12:39:47;19.60;43.30
60846;DHT22;47984;51.250;6.712;2022-07-06T12:42:16;19.70;42.40
60846;DHT22;47984;51.250;6.712;2022-07-06T12:44:48;19.70;42.30
60846;DHT22;47984;51.250;6.712;2022-07-06T12:47:23;19.70;42.10
60846;DHT22;47984;51.250;6.712;2022-07-06T12:52:33;19.80;41.80
60846;DHT22;47984;51.250;6.712;2022-07-06T12:55:01;19.80;42.50
60846;DHT22;47984;51.250;6.712;2022-07-06T12:57:48;19.80;42.10
60846;DHT22;47984;51.250;6.712;2022-07-06T13:00:19;19.80;41.60
60846;DHT22;47984;51.250;6.712;2022-07-06T13:02:53;19.80;41.80
60846;DHT22;47984;51.250;6.712;2022-07-06T13:05:49;19.80;41.80
60846;DHT22;47984;51.250;6.712;2022-07-06T13:08:16;19.90;41.50
60846;DHT22;47984;51.250;6.712;2022-07-06T13:10:43;19.90;41.40
60846;DHT22;47984;51.250;6.712;2022-07-06T13:13:12;19.90;41.50
60846;DHT22;47984;51.250;6.712;2022-07-06T13:15:41;19.90;41.60
60846;DHT22;47984;51.250;6.712;2022-07-06T13:18:09;19.90;41.10
60846;DHT22;47984;51.250;6.712;2022-07-06T13:20:40;20.00;41.40
60846;DHT22;47984;51.250;6.712;2022-07-06T13:23:08;20.00;41.50
60846;DHT22;47984;51.250;6.712;2022-07-06T13:25:35;20.00;41.40
60846;DHT22;47984;51.250;6.712;2022-07-06T13:28:05;20.00;41.20
60846;DHT22;47984;51.250;6.712;2022-07-06T13:30:33;20.00;41.20
60846;DHT22;47984;51.250;6.712;2022-07-06T13:33:00;20.00;41.20
60846;DHT22;47984;51.250;6.712;2022-07-06T13:35:27;20.00;41.20
60846;DHT22;47984;51.250;6.712;2022-07-06T13:37:54;20.10;41.20
60846;DHT22;47984;51.250;6.712;2022-07-06T13:40:21;20.10;41.00
60846;DHT22;47984;51.250;6.712;2022-07-06T13:42:49;20.10;41.10
60846;DHT22;47984;51.250;6.712;2022-07-06T13:45:16;20.10;40.80
60846;DHT22;47984;51.250;6.712;2022-07-06T13:47:43;20.10;40.90
60846;DHT22;47984;51.250;6.712;2022-07-06T13:50:10;20.10;40.70
60846;DHT22;47984;51.250;6.712;2022-07-06T13:52:37;20.20;40.90
60846;DHT22;47984;51.250;6.712;2022-07-06T13:55:05;20.20;40.90
60846;DHT22;47984;51.250;6.712;2022-07-06T13:57:34;20.20;41.00
60846;DHT22;47984;51.250;6.712;2022-07-06T14:00:02;20.20;40.60
60846;DHT22;47984;51.250;6.712;2022-07-06T14:02:30;20.30;40.50
60846;DHT22;47984;51.250;6.712;2022-07-06T14:04:57;20.30;40.50
60846;DHT22;47984;51.250;6.712;2022-07-06T14:07:25;20.30;40.30
60846;DHT22;47984;51.250;6.712;2022-07-06T14:09:52;20.30;40.20
60846;DHT22;47984;51.250;6.712;2022-07-06T14:12:19;20.30;40.10
60846;DHT22;47984;51.250;6.712;2022-07-06T14:14:49;20.30;40.30
60846;DHT22;47984;51.250;6.712;2022-07-06T14:17:17;20.40;40.30
60846;DHT22;47984;51.250;6.712;2022-07-06T14:19:44;20.40;40.30
60846;DHT22;47984;51.250;6.712;2022-07-06T14:22:11;20.40;40.60
60846;DHT22;47984;51.250;6.712;2022-07-06T14:24:38;20.40;40.30
60846;DHT22;47984;51.250;6.712;2022-07-06T14:27:06;20.40;40.50
60846;DHT22;47984;51.250;6.712;2022-07-06T14:29:33;20.40;40.30
60846;DHT22;47984;51.250;6.712;2022-07-06T14:32:00;20.40;40.10
60846;DHT22;47984;51.250;6.712;2022-07-06T14:34:28;20.50;40.20
60846;DHT22;47984;51.250;6.712;2022-07-06T14:36:55;20.50;40.10
60846;DHT22;47984;51.250;6.712;2022-07-06T14:39:22;20.50;40.10
60846;DHT22;47984;51.250;6.712;2022-07-06T14:41:50;20.50;40.20
60846;DHT22;47984;51.250;6.712;2022-07-06T14:44:17;20.50;40.10
60846;DHT22;47984;51.250;6.712;2022-07-06T14:46:44;20.50;40.00
60846;DHT22;47984;51.250;6.712;2022-07-06T14:49:11;20.60;40.00
60846;DHT22;47984;51.250;6.712;2022-07-06T14:51:46;20.60;40.10
60846;DHT22;47984;51.250;6.712;2022-07-06T14:54:15;20.60;40.10
60846;DHT22;47984;51.250;6.712;2022-07-06T14:56:42;20.60;40.00
60846;DHT22;47984;51.250;6.712;2022-07-06T14:59:09;20.70;39.80
60846;DHT22;47984;51.250;6.712;2022-07-06T15:01:52;20.70;39.60
60846;DHT22;47984;51.250;6.712;2022-07-06T15:04:20;20.70;39.40
60846;DHT22;47984;51.250;6.712;2022-07-06T15:06:48;20.70;39.20
60846;DHT22;47984;51.250;6.712;2022-07-06T15:09:21;20.70;39.50
60846;DHT22;47984;51.250;6.712;2022-07-06T15:11:49;20.70;39.50
60846;DHT22;47984;51.250;6.712;2022-07-06T15:14:16;20.70;39.60
60846;DHT22;47984;51.250;6.712;2022-07-06T15:16:44;20.70;39.40
60846;DHT22;47984;51.250;6.712;2022-07-06T15:19:12;20.70;39.40
60846;DHT22;47984;51.250;6.712;2022-07-06T15:21:39;20.80;39.40
60846;DHT22;47984;51.250;6.712;2022-07-06T15:24:06;20.70;39.20
60846;DHT22;47984;51.250;6.712;2022-07-06T15:26:34;20.70;39.60
60846;DHT22;47984;51.250;6.712;2022-07-06T15:29:01;20.70;39.40
60846;DHT22;47984;51.250;6.712;2022-07-06T15:31:28;20.80;39.40
60846;DHT22;47984;51.250;6.712;2022-07-06T15:33:58;20.80;39.40
60846;DHT22;47984;51.250;6.712;2022-07-06T15:36:28;20.80;39.20
60846;DHT22;47984;51.250;6.712;2022-07-06T15:38:55;20.80;39.20
60846;DHT22;47984;51.250;6.712;2022-07-06T15:41:23;20.80;39.40
60846;DHT22;47984;51.250;6.712;2022-07-06T15:43:52;20.80;39.00
60846;DHT22;47984;51.250;6.712;2022-07-06T15:46:21;20.80;39.00
60846;DHT22;47984;51.250;6.712;2022-07-06T15:48:51;20.80;39.10
60846;DHT22;47984;51.250;6.712;2022-07-06T15:51:18;20.90;39.20
60846;DHT22;47984;51.250;6.712;2022-07-06T15:53:45;20.90;39.40
60846;DHT22;47984;51.250;6.712;2022-07-06T15:56:14;20.90;39.30
60846;DHT22;47984;51.250;6.712;2022-07-06T15:58:42;20.90;39.20
60846;DHT22;47984;51.250;6.712;2022-07-06T16:01:09;20.90;39.30
60846;DHT22;47984;51.250;6.712;2022-07-06T16:03:37;20.90;39.40